sensor_id;sensor_type;location;lat;lon;timestamp;temperature;humidity
47779;DHT22;33538;48.432;11.350;2023-03-14T00:01:10;10.90;99.90
47779;DHT22;33538;48.432;11.350;2023-03-14T00:03:37;10.90;99.90
47779;DHT22;33538;48.432;11.350;2023-03-14T00:06:05;10.90;99.90
47779;DHT22;33538;48.432;11.350;2023-03-14T00:08:34;10.90;99.90
47779;DHT22;33538;48.432;11.350;2023-03-14T00:11:05;10.90;99.90
47779;DHT22;33538;48.432;11.350;2023-03-14T00:13:31;10.90;99.90
47779;DHT22;33538;48.432;11.350;2023-03-14T00:16:02;10.90;99.90
47779;DHT22;33538;48.432;11.350;2023-03-14T00:18:29;10.90;99.90
47779;DHT22;33538;48.432;11.350;2023-03-14T00:20:57;10.90;99.90
47779;DHT22;33538;48.432;11.350;2023-03-14T00:23:24;10.90;99.90
47779;DHT22;33538;48.432;11.350;2023-03-14T00:25:52;10.90;99.90
47779;DHT22;33538;48.432;11.350;2023-03-14T00:28:19;10.80;99.90
47779;DHT22;33538;48.432;11.350;2023-03-14T00:30:46;10.90;99.90
47779;DHT22;33538;48.432;11.350;2023-03-14T00:33:12;10.90;99.90
47779;DHT22;33538;48.432;11.350;2023-03-14T00:35:39;10.90;99.90
47779;DHT22;33538;48.432;11.350;2023-03-14T00:38:06;10.90;99.90
47779;DHT22;33538;48.432;11.350;2023-03-14T00:40:33;10.90;99.90
47779;DHT22;33538;48.432;11.350;2023-03-14T00:43:01;10.90;99.90
47779;DHT22;33538;48.432;11.350;2023-03-14T00:45:27;10.80;99.90
47779;DHT22;33538;48.432;11.350;2023-03-14T00:47:54;10.90;99.90
47779;DHT22;33538;48.432;11.350;2023-03-14T00:50:21;10.90;99.90
47779;DHT22;33538;48.432;11.350;2023-03-14T00:52:48;10.90;99.90
47779;DHT22;33538;48.432;11.350;2023-03-14T00:55:15;10.90;99.90
47779;DHT22;33538;48.432;11.350;2023-03-14T00:57:41;10.80;99.90
47779;DHT22;33538;48.432;11.350;2023-03-14T01:00:11;10.90;99.90
47779;DHT22;33538;48.432;11.350;2023-03-14T01:02:38;10.90;99.90
47779;DHT22;33538;48.432;11.350;2023-03-14T01:05:05;10.90;99.90
47779;DHT22;33538;48.432;11.350;2023-03-14T01:07:32;10.90;99.90
47779;DHT22;33538;48.432;11.350;2023-03-14T01:09:59;10.90;99.90
47779;DHT22;33538;48.432;11.350;2023-03-14T01:12:27;10.90;99.90
47779;DHT22;33538;48.432;11.350;2023-03-14T01:14:54;10.90;99.90
47779;DHT22;33538;48.432;11.350;2023-03-14T01:17:23;10.90;99.90
47779;DHT22;33538;48.432;11.350;2023-03-14T01:19:50;10.90;99.90
47779;DHT22;33538;48.432;11.350;2023-03-14T01:22:17;10.90;99.90
47779;DHT22;33538;48.432;11.350;2023-03-14T01:24:44;10.90;99.90
47779;DHT22;33538;48.432;11.350;2023-03-14T01:27:10;10.90;99.90
47779;DHT22;33538;48.432;11.350;2023-03-14T01:29:37;10.90;99.90
47779;DHT22;33538;48.432;11.350;2023-03-14T01:32:04;10.90;99.90
47779;DHT22;33538;48.432;11.350;2023-03-14T01:34:33;10.90;99.90
47779;DHT22;33538;48.432;11.350;2023-03-14T01:37:00;10.90;99.90
47779;DHT22;33538;48.432;11.350;2023-03-14T01:39:27;10.90;99.90
47779;DHT22;33538;48.432;11.350;2023-03-14T01:41:54;10.80;99.90
47779;DHT22;33538;48.432;11.350;2023-03-14T01:44:21;10.80;99.90
47779;DHT22;33538;48.432;11.350;2023-03-14T01:46:47;10.80;99.90
47779;DHT22;33538;48.432;11.350;2023-03-14T01:49:22;10.80;99.90
47779;DHT22;33538;48.432;11.350;2023-03-14T01:51:56;10.80;99.90
47779;DHT22;33538;48.432;11.350;2023-03-14T01:54:26;10.80;99.90
47779;DHT22;33538;48.432;11.350;2023-03-14T01:56:57;10.80;99.90
47779;DHT22;33538;48.432;11.350;2023-03-14T01:59:28;10.80;99.90
47779;DHT22;33538;48.432;11.350;2023-03-14T02:01:57;10.80;99.90
47779;DHT22;33538;48.432;11.350;2023-03-14T02:04:26;10.70;99.90
47779;DHT22;33538;48.432;11.350;2023-03-14T02:07:00;10.70;99.90
47779;DHT22;33538;48.432;11.350;2023-03-14T02:09:28;10.70;99.90
47779;DHT22;33538;48.432;11.350;2023-03-14T02:11:55;10.70;99.90
47779;DHT22;33538;48.432;11.350;2023-03-14T02:14:29;10.70;99.90
47779;DHT22;33538;48.432;11.350;2023-03-14T02:16:56;10.70;99.90
47779;DHT22;33538;48.432;11.350;2023-03-14T02:19:32;10.70;99.90
47779;DHT22;33538;48.432;11.350;2023-03-14T02:22:06;10.60;99.90
47779;DHT22;33538;48.432;11.350;2023-03-14T02:24:39;10.60;99.90
47779;DHT22;33538;48.432;11.350;2023-03-14T02:27:12;10.60;99.90
47779;DHT22;33538;48.432;11.350;2023-03-14T02:29:43;10.60;99.90
47779;DHT22;33538;48.432;11.350;2023-03-14T02:32:12;10.60;99.90
47779;DHT22;33538;48.432;11.350;2023-03-14T02:34:40;10.60;99.90
47779;DHT22;33538;48.432;11.350;2023-03-14T02:37:08;10.60;99.90
47779;DHT22;33538;48.432;11.350;2023-03-14T02:39:38;10.60;99.90
47779;DHT22;33538;48.432;11.350;2023-03-14T02:42:06;10.60;99.90
47779;DHT22;33538;48.432;11.350;2023-03-14T02:44:34;10.50;99.90
47779;DHT22;33538;48.432;11.350;2023-03-14T02:47:02;10.50;99.90
47779;DHT22;33538;48.432;11.350;2023-03-14T02:49:31;10.50;99.90
47779;DHT22;33538;48.432;11.350;2023-03-14T02:51:59;10.50;99.90
47779;DHT22;33538;48.432;11.350;2023-03-14T02:54:26;10.50;99.90
47779;DHT22;33538;48.432;11.350;2023-03-14T02:56:53;10.50;99.90
47779;DHT22;33538;48.432;11.350;2023-03-14T02:59:20;10.50;99.90
47779;DHT22;33538;48.432;11.350;2023-03-14T03:01:48;10.50;99.90
47779;DHT22;33538;48.432;11.350;2023-03-14T03:04:14;10.50;99.90
47779;DHT22;33538;48.432;11.350;2023-03-14T03:06:41;10.50;99.90
47779;DHT22;33538;48.432;11.350;2023-03-14T03:09:08;10.50;99.90
47779;DHT22;33538;48.432;11.350;2023-03-14T03:11:35;10.50;99.90
47779;DHT22;33538;48.432;11.350;2023-03-14T03:14:01;10.50;99.90
47779;DHT22;33538;48.432;11.350;2023-03-14T03:16:28;10.50;99.90
47779;DHT22;33538;48.432;11.350;2023-03-14T03:18:56;10.50;99.90
47779;DHT22;33538;48.432;11.350;2023-03-14T03:21:23;10.50;99.90
47779;DHT22;33538;48.432;11.350;2023-03-14T03:23:50;10.50;99.90
47779;DHT22;33538;48.432;11.350;2023-03-14T03:26:17;10.50;99.90
47779;DHT22;33538;48.432;11.350;2023-03-14T03:28:44;10.50;99.90
47779;DHT22;33538;48.432;11.350;2023-03-14T03:31:11;10.50;99.90
47779;DHT22;33538;48.432;11.350;2023-03-14T03:33:38;10.50;99.90
47779;DHT22;33538;48.432;11.350;2023-03-14T03:36:08;10.50;99.90
47779;DHT22;33538;48.432;11.350;2023-03-14T03:38:35;10.50;99.90
47779;DHT22;33538;48.432;11.350;2023-03-14T03:41:04;10.50;99.90
47779;DHT22;33538;48.432;11.350;2023-03-14T03:43:30;10.50;99.90
47779;DHT22;33538;48.432;11.350;2023-03-14T03:45:57;10.50;99.90
47779;DHT22;33538;48.432;11.350;2023-03-14T03:48:24;10.50;99.90
47779;DHT22;33538;48.432;11.350;2023-03-14T03:50:51;10.50;99.90
47779;DHT22;33538;48.432;11.350;2023-03-14T03:53:19;10.50;99.90
47779;DHT22;33538;48.432;11.350;2023-03-14T03:55:59;10.50;99.90
47779;DHT22;33538;48.432;11.350;2023-03-14T03:58:25;10.50;99.90
47779;DHT22;33538;48.432;11.350;2023-03-14T04:00:52;10.50;99.90
47779;DHT22;33538;48.432;11.350;2023-03-14T04:03:19;10.50;99.90
47779;DHT22;33538;48.432;11.350;2023-03-14T04:05:46;10.40;99.90
47779;DHT22;33538;48.432;11.350;2023-03-14T04:08:13;10.40;99.90
47779;DHT22;33538;48.432;11.350;2023-03-14T04:10:41;10.40;99.90
47779;DHT22;33538;48.432;11.350;2023-03-14T04:13:07;10.40;99.90
47779;DHT22;33538;48.432;11.350;2023-03-14T04:15:34;10.40;99.90
47779;DHT22;33538;48.432;11.350;2023-03-14T04:18:01;10.40;99.90
47779;DHT22;33538;48.432;11.350;2023-03-14T04:20:28;10.40;99.90
47779;DHT22;33538;48.432;11.350;2023-03-14T04:22:54;10.40;99.90
47779;DHT22;33538;48.432;11.350;2023-03-14T04:25:21;10.40;99.90
47779;DHT22;33538;48.432;11.350;2023-03-14T04:27:49;10.40;99.90
47779;DHT22;33538;48.432;11.350;2023-03-14T04:30:19;10.40;99.90
47779;DHT22;33538;48.432;11.350;2023-03-14T04:32:45;10.40;99.90
47779;DHT22;33538;48.432;11.350;2023-03-14T04:35:12;10.40;99.90
47779;DHT22;33538;48.432;11.350;2023-03-14T04:37:39;10.40;99.90
47779;DHT22;33538;48.432;11.350;2023-03-14T04:40:07;10.40;99.90
47779;DHT22;33538;48.432;11.350;2023-03-14T04:42:34;10.30;99.90
47779;DHT22;33538;48.432;11.350;2023-03-14T04:45:02;10.30;99.90
47779;DHT22;33538;48.432;11.350;2023-03-14T04:47:29;10.30;99.90
47779;DHT22;33538;48.432;11.350;2023-03-14T04:49:56;10.30;99.90
47779;DHT22;33538;48.432;11.350;2023-03-14T04:52:23;10.30;99.90
47779;DHT22;33538;48.432;11.350;2023-03-14T04:54:49;10.30;99.90
47779;DHT22;33538;48.432;11.350;2023-03-14T04:57:16;10.30;99.90
47779;DHT22;33538;48.432;11.350;2023-03-14T04:59:43;10.30;99.90
47779;DHT22;33538;48.432;11.350;2023-03-14T05:02:11;10.20;99.90
47779;DHT22;33538;48.432;11.350;2023-03-14T05:04:38;10.20;99.90
47779;DHT22;33538;48.432;11.350;2023-03-14T05:07:05;10.20;99.90
47779;DHT22;33538;48.432;11.350;2023-03-14T05:09:31;10.20;99.90
47779;DHT22;33538;48.432;11.350;2023-03-14T05:11:58;10.20;99.90
47779;DHT22;33538;48.432;11.350;2023-03-14T05:14:25;10.20;99.90
47779;DHT22;33538;48.432;11.350;2023-03-14T05:16:52;10.20;99.90
47779;DHT22;33538;48.432;11.350;2023-03-14T05:19:20;10.10;99.90
47779;DHT22;33538;48.432;11.350;2023-03-14T05:21:46;10.10;99.90
47779;DHT22;33538;48.432;11.350;2023-03-14T05:24:13;10.10;99.90
47779;DHT22;33538;48.432;11.350;2023-03-14T05:26:40;10.10;99.90
47779;DHT22;33538;48.432;11.350;2023-03-14T05:29:07;10.10;99.90
47779;DHT22;33538;48.432;11.350;2023-03-14T05:31:33;10.10;99.90
47779;DHT22;33538;48.432;11.350;2023-03-14T05:34:00;10.10;99.90
47779;DHT22;33538;48.432;11.350;2023-03-14T05:36:28;10.10;99.90
47779;DHT22;33538;48.432;11.350;2023-03-14T05:38:55;10.10;99.90
47779;DHT22;33538;48.432;11.350;2023-03-14T05:41:22;10.10;99.90
47779;DHT22;33538;48.432;11.350;2023-03-14T05:43:48;10.10;99.90
47779;DHT22;33538;48.432;11.350;2023-03-14T05:46:15;10.00;99.90
47779;DHT22;33538;48.432;11.350;2023-03-14T05:48:42;10.00;99.90
47779;DHT22;33538;48.432;11.350;2023-03-14T05:51:09;10.00;99.90
47779;DHT22;33538;48.432;11.350;2023-03-14T05:53:37;10.00;99.90
47779;DHT22;33538;48.432;11.350;2023-03-14T05:56:04;10.00;99.90
47779;DHT22;33538;48.432;11.350;2023-03-14T05:58:31;10.00;99.90
47779;DHT22;33538;48.432;11.350;2023-03-14T06:01:01;10.00;99.90
47779;DHT22;33538;48.432;11.350;2023-03-14T06:03:27;10.00;99.90
47779;DHT22;33538;48.432;11.350;2023-03-14T06:05:54;10.00;99.90
47779;DHT22;33538;48.432;11.350;2023-03-14T06:08:21;9.90;99.90
47779;DHT22;33538;48.432;11.350;2023-03-14T06:10:49;9.90;99.90
47779;DHT22;33538;48.432;11.350;2023-03-14T06:13:15;9.90;99.90
47779;DHT22;33538;48.432;11.350;2023-03-14T06:15:43;10.00;99.90
47779;DHT22;33538;48.432;11.350;2023-03-14T06:18:09;9.90;99.90
47779;DHT22;33538;48.432;11.350;2023-03-14T06:20:37;9.90;99.90
47779;DHT22;33538;48.432;11.350;2023-03-14T06:23:03;9.90;99.90
47779;DHT22;33538;48.432;11.350;2023-03-14T06:25:31;9.90;99.90
47779;DHT22;33538;48.432;11.350;2023-03-14T06:27:59;9.90;99.90
47779;DHT22;33538;48.432;11.350;2023-03-14T06:30:26;9.90;99.90
47779;DHT22;33538;48.432;11.350;2023-03-14T06:32:53;9.90;99.90
47779;DHT22;33538;48.432;11.350;2023-03-14T06:35:20;9.90;99.90
47779;DHT22;33538;48.432;11.350;2023-03-14T06:37:46;9.90;99.90
47779;DHT22;33538;48.432;11.350;2023-03-14T06:40:13;9.90;99.90
47779;DHT22;33538;48.432;11.350;2023-03-14T06:42:40;9.90;99.90
47779;DHT22;33538;48.432;11.350;2023-03-14T06:45:09;9.90;99.90
47779;DHT22;33538;48.432;11.350;2023-03-14T06:47:36;9.90;99.90
47779;DHT22;33538;48.432;11.350;2023-03-14T06:50:04;9.90;99.90
47779;DHT22;33538;48.432;11.350;2023-03-14T06:52:31;9.90;99.90
47779;DHT22;33538;48.432;11.350;2023-03-14T06:54:59;9.90;99.90
47779;DHT22;33538;48.432;11.350;2023-03-14T06:57:25;9.90;99.90
47779;DHT22;33538;48.432;11.350;2023-03-14T06:59:52;9.90;99.90
47779;DHT22;33538;48.432;11.350;2023-03-14T07:02:21;9.90;99.90
47779;DHT22;33538;48.432;11.350;2023-03-14T07:05:07;9.90;99.90
47779;DHT22;33538;48.432;11.350;2023-03-14T07:07:34;9.90;99.80
47779;DHT22;33538;48.432;11.350;2023-03-14T07:10:01;9.90;99.90
47779;DHT22;33538;48.432;11.350;2023-03-14T07:12:28;9.90;99.70
47779;DHT22;33538;48.432;11.350;2023-03-14T07:14:54;9.90;99.60
47779;DHT22;33538;48.432;11.350;2023-03-14T07:17:26;9.90;99.70
47779;DHT22;33538;48.432;11.350;2023-03-14T07:19:52;9.90;99.70
47779;DHT22;33538;48.432;11.350;2023-03-14T07:22:19;9.90;99.60
47779;DHT22;33538;48.432;11.350;2023-03-14T07:24:46;9.90;99.60
47779;DHT22;33538;48.432;11.350;2023-03-14T07:27:13;9.90;99.70
47779;DHT22;33538;48.432;11.350;2023-03-14T07:29:40;9.90;99.70
47779;DHT22;33538;48.432;11.350;2023-03-14T07:32:07;9.90;99.70
47779;DHT22;33538;48.432;11.350;2023-03-14T07:34:35;9.90;99.60
47779;DHT22;33538;48.432;11.350;2023-03-14T07:37:02;9.90;99.70
47779;DHT22;33538;48.432;11.350;2023-03-14T07:39:29;9.90;99.70
47779;DHT22;33538;48.432;11.350;2023-03-14T07:41:55;9.90;99.70
47779;DHT22;33538;48.432;11.350;2023-03-14T07:44:24;9.90;99.70
47779;DHT22;33538;48.432;11.350;2023-03-14T07:46:51;9.90;99.80
47779;DHT22;33538;48.432;11.350;2023-03-14T07:49:18;9.90;99.80
47779;DHT22;33538;48.432;11.350;2023-03-14T07:51:48;9.90;99.90
47779;DHT22;33538;48.432;11.350;2023-03-14T07:54:15;9.90;99.90
47779;DHT22;33538;48.432;11.350;2023-03-14T07:56:42;9.90;99.90
47779;DHT22;33538;48.432;11.350;2023-03-14T07:59:09;9.90;99.90
47779;DHT22;33538;48.432;11.350;2023-03-14T08:01:36;9.90;99.90
47779;DHT22;33538;48.432;11.350;2023-03-14T08:04:02;9.90;99.80
47779;DHT22;33538;48.432;11.350;2023-03-14T08:06:29;9.90;99.80
47779;DHT22;33538;48.432;11.350;2023-03-14T08:08:57;9.90;99.90
47779;DHT22;33538;48.432;11.350;2023-03-14T08:11:24;9.90;99.90
47779;DHT22;33538;48.432;11.350;2023-03-14T08:13:51;9.90;99.90
47779;DHT22;33538;48.432;11.350;2023-03-14T08:16:18;9.90;99.90
47779;DHT22;33538;48.432;11.350;2023-03-14T08:18:45;9.90;99.90
47779;DHT22;33538;48.432;11.350;2023-03-14T08:21:13;10.00;99.90
47779;DHT22;33538;48.432;11.350;2023-03-14T08:23:40;9.90;99.90
47779;DHT22;33538;48.432;11.350;2023-03-14T08:26:08;10.00;99.90
47779;DHT22;33538;48.432;11.350;2023-03-14T08:28:35;10.00;99.90
47779;DHT22;33538;48.432;11.350;2023-03-14T08:31:02;10.00;99.90
47779;DHT22;33538;48.432;11.350;2023-03-14T08:33:29;10.00;99.90
47779;DHT22;33538;48.432;11.350;2023-03-14T08:35:57;10.00;99.90
47779;DHT22;33538;48.432;11.350;2023-03-14T08:38:24;10.00;99.90
47779;DHT22;33538;48.432;11.350;2023-03-14T08:40:55;10.00;99.90
47779;DHT22;33538;48.432;11.350;2023-03-14T08:43:23;10.10;99.90
47779;DHT22;33538;48.432;11.350;2023-03-14T08:45:50;10.10;99.90
47779;DHT22;33538;48.432;11.350;2023-03-14T08:48:17;10.10;99.90
47779;DHT22;33538;48.432;11.350;2023-03-14T08:50:44;10.10;99.90
47779;DHT22;33538;48.432;11.350;2023-03-14T08:53:10;10.10;99.90
47779;DHT22;33538;48.432;11.350;2023-03-14T08:55:37;10.10;99.90
47779;DHT22;33538;48.432;11.350;2023-03-14T08:58:04;10.10;99.90
47779;DHT22;33538;48.432;11.350;2023-03-14T09:00:32;10.10;99.90
47779;DHT22;33538;48.432;11.350;2023-03-14T09:02:59;10.10;99.80
47779;DHT22;33538;48.432;11.350;2023-03-14T09:05:26;10.10;99.80
47779;DHT22;33538;48.432;11.350;2023-03-14T09:07:52;10.10;99.80
47779;DHT22;33538;48.432;11.350;2023-03-14T09:10:19;10.10;99.70
47779;DHT22;33538;48.432;11.350;2023-03-14T09:12:46;10.10;99.70
47779;DHT22;33538;48.432;11.350;2023-03-14T09:15:13;10.10;99.70
47779;DHT22;33538;48.432;11.350;2023-03-14T09:17:42;10.10;99.70
47779;DHT22;33538;48.432;11.350;2023-03-14T09:20:10;10.10;99.60
47779;DHT22;33538;48.432;11.350;2023-03-14T09:22:37;10.10;99.50
47779;DHT22;33538;48.432;11.350;2023-03-14T09:25:04;10.10;99.50
47779;DHT22;33538;48.432;11.350;2023-03-14T09:27:31;10.20;99.60
47779;DHT22;33538;48.432;11.350;2023-03-14T09:29:58;10.20;99.60
47779;DHT22;33538;48.432;11.350;2023-03-14T09:32:25;10.20;99.60
47779;DHT22;33538;48.432;11.350;2023-03-14T09:34:53;10.20;99.70
47779;DHT22;33538;48.432;11.350;2023-03-14T09:37:20;10.20;99.60
47779;DHT22;33538;48.432;11.350;2023-03-14T09:39:46;10.20;99.60
47779;DHT22;33538;48.432;11.350;2023-03-14T09:42:16;10.30;99.60
47779;DHT22;33538;48.432;11.350;2023-03-14T09:44:51;10.30;99.70
47779;DHT22;33538;48.432;11.350;2023-03-14T09:47:19;10.30;99.70
47779;DHT22;33538;48.432;11.350;2023-03-14T09:49:46;10.30;99.60
47779;DHT22;33538;48.432;11.350;2023-03-14T09:52:17;10.30;99.60
47779;DHT22;33538;48.432;11.350;2023-03-14T09:54:49;10.30;99.60
47779;DHT22;33538;48.432;11.350;2023-03-14T09:57:18;10.30;99.60
47779;DHT22;33538;48.432;11.350;2023-03-14T09:59:46;10.30;99.70
47779;DHT22;33538;48.432;11.350;2023-03-14T10:02:17;10.30;99.70
47779;DHT22;33538;48.432;11.350;2023-03-14T10:04:45;10.40;99.60
47779;DHT22;33538;48.432;11.350;2023-03-14T10:07:16;10.30;99.70
47779;DHT22;33538;48.432;11.350;2023-03-14T10:09:44;10.30;99.80
47779;DHT22;33538;48.432;11.350;2023-03-14T10:12:11;10.30;99.80
47779;DHT22;33538;48.432;11.350;2023-03-14T10:14:45;10.40;99.80
47779;DHT22;33538;48.432;11.350;2023-03-14T10:17:13;10.30;99.90
47779;DHT22;33538;48.432;11.350;2023-03-14T10:19:51;10.40;99.90
47779;DHT22;33538;48.432;11.350;2023-03-14T10:22:20;10.40;99.90
47779;DHT22;33538;48.432;11.350;2023-03-14T10:24:52;10.40;99.90
47779;DHT22;33538;48.432;11.350;2023-03-14T10:27:21;10.40;99.90
47779;DHT22;33538;48.432;11.350;2023-03-14T10:29:54;10.40;99.90
47779;DHT22;33538;48.432;11.350;2023-03-14T10:32:29;10.40;99.90
47779;DHT22;33538;48.432;11.350;2023-03-14T10:35:08;10.40;99.90
47779;DHT22;33538;48.432;11.350;2023-03-14T10:37:48;10.40;99.90
47779;DHT22;33538;48.432;11.350;2023-03-14T10:40:18;10.50;99.90
47779;DHT22;33538;48.432;11.350;2023-03-14T10:42:45;10.50;99.90
47779;DHT22;33538;48.432;11.350;2023-03-14T10:45:31;10.50;99.80
47779;DHT22;33538;48.432;11.350;2023-03-14T10:48:05;10.50;99.70
47779;DHT22;33538;48.432;11.350;2023-03-14T10:50:32;10.50;99.70
47779;DHT22;33538;48.432;11.350;2023-03-14T10:53:03;10.50;99.60
47779;DHT22;33538;48.432;11.350;2023-03-14T10:55:39;10.50;99.60
47779;DHT22;33538;48.432;11.350;2023-03-14T10:58:20;10.60;99.30
47779;DHT22;33538;48.432;11.350;2023-03-14T11:00:52;10.60;99.30
47779;DHT22;33538;48.432;11.350;2023-03-14T11:03:20;10.60;99.30
47779;DHT22;33538;48.432;11.350;2023-03-14T11:05:51;10.60;99.30
47779;DHT22;33538;48.432;11.350;2023-03-14T11:08:27;10.60;99.40
47779;DHT22;33538;48.432;11.350;2023-03-14T11:10:57;10.60;99.50
47779;DHT22;33538;48.432;11.350;2023-03-14T11:13:33;10.60;99.50
47779;DHT22;33538;48.432;11.350;2023-03-14T11:16:11;10.60;99.50
47779;DHT22;33538;48.432;11.350;2023-03-14T11:19:01;10.70;99.40
47779;DHT22;33538;48.432;11.350;2023-03-14T11:21:34;10.70;99.40
47779;DHT22;33538;48.432;11.350;2023-03-14T11:24:17;10.70;99.30
47779;DHT22;33538;48.432;11.350;2023-03-14T11:26:52;10.70;99.20
47779;DHT22;33538;48.432;11.350;2023-03-14T11:29:26;10.70;99.20
47779;DHT22;33538;48.432;11.350;2023-03-14T11:31:55;10.70;99.30
47779;DHT22;33538;48.432;11.350;2023-03-14T11:34:28;10.70;99.30
47779;DHT22;33538;48.432;11.350;2023-03-14T11:36:59;10.70;99.30
47779;DHT22;33538;48.432;11.350;2023-03-14T11:39:35;10.70;99.20
47779;DHT22;33538;48.432;11.350;2023-03-14T11:42:04;10.80;99.30
47779;DHT22;33538;48.432;11.350;2023-03-14T11:44:34;10.80;99.20
47779;DHT22;33538;48.432;11.350;2023-03-14T11:47:07;10.80;99.20
47779;DHT22;33538;48.432;11.350;2023-03-14T11:49:38;10.80;99.10
47779;DHT22;33538;48.432;11.350;2023-03-14T11:52:10;10.80;99.00
47779;DHT22;33538;48.432;11.350;2023-03-14T11:54:44;10.80;99.00
47779;DHT22;33538;48.432;11.350;2023-03-14T11:57:14;10.80;99.10
47779;DHT22;33538;48.432;11.350;2023-03-14T11:59:47;10.80;99.10
47779;DHT22;33538;48.432;11.350;2023-03-14T12:02:22;10.80;99.20
47779;DHT22;33538;48.432;11.350;2023-03-14T12:05:14;10.80;99.20
47779;DHT22;33538;48.432;11.350;2023-03-14T12:08:02;10.80;98.70
47779;DHT22;33538;48.432;11.350;2023-03-14T12:10:43;10.80;98.60
47779;DHT22;33538;48.432;11.350;2023-03-14T12:13:13;10.80;98.70
47779;DHT22;33538;48.432;11.350;2023-03-14T12:15:46;10.80;98.70
47779;DHT22;33538;48.432;11.350;2023-03-14T12:18:21;10.80;98.80
47779;DHT22;33538;48.432;11.350;2023-03-14T12:20:54;10.80;98.70
47779;DHT22;33538;48.432;11.350;2023-03-14T12:23:22;10.80;98.50
47779;DHT22;33538;48.432;11.350;2023-03-14T12:26:07;10.80;98.30
47779;DHT22;33538;48.432;11.350;2023-03-14T12:28:34;10.80;98.10
47779;DHT22;33538;48.432;11.350;2023-03-14T12:34:02;10.80;98.20
47779;DHT22;33538;48.432;11.350;2023-03-14T12:36:51;10.80;98.30
47779;DHT22;33538;48.432;11.350;2023-03-14T12:39:25;10.80;97.90
47779;DHT22;33538;48.432;11.350;2023-03-14T12:42:02;10.80;97.60
47779;DHT22;33538;48.432;11.350;2023-03-14T12:44:44;10.80;97.50
47779;DHT22;33538;48.432;11.350;2023-03-14T12:47:48;10.80;97.40
47779;DHT22;33538;48.432;11.350;2023-03-14T12:50:35;10.80;97.10
47779;DHT22;33538;48.432;11.350;2023-03-14T12:53:27;10.80;97.10
47779;DHT22;33538;48.432;11.350;2023-03-14T12:56:00;10.80;97.30
47779;DHT22;33538;48.432;11.350;2023-03-14T12:58:33;10.80;97.20
47779;DHT22;33538;48.432;11.350;2023-03-14T13:01:04;10.80;97.30
47779;DHT22;33538;48.432;11.350;2023-03-14T13:03:39;10.80;97.10
47779;DHT22;33538;48.432;11.350;2023-03-14T13:06:10;10.80;96.80
47779;DHT22;33538;48.432;11.350;2023-03-14T13:08:40;10.80;96.50
47779;DHT22;33538;48.432;11.350;2023-03-14T13:11:10;10.90;96.20
47779;DHT22;33538;48.432;11.350;2023-03-14T13:13:42;10.90;96.20
47779;DHT22;33538;48.432;11.350;2023-03-14T13:16:15;10.90;95.90
47779;DHT22;33538;48.432;11.350;2023-03-14T13:18:45;10.80;96.20
47779;DHT22;33538;48.432;11.350;2023-03-14T13:21:15;10.80;96.50
47779;DHT22;33538;48.432;11.350;2023-03-14T13:23:57;10.80;96.70
47779;DHT22;33538;48.432;11.350;2023-03-14T13:26:31;10.80;96.90
47779;DHT22;33538;48.432;11.350;2023-03-14T13:29:00;10.80;96.90
47779;DHT22;33538;48.432;11.350;2023-03-14T13:31:35;10.80;96.90
47779;DHT22;33538;48.432;11.350;2023-03-14T13:34:05;10.80;96.60
47779;DHT22;33538;48.432;11.350;2023-03-14T13:36:35;10.80;96.80
47779;DHT22;33538;48.432;11.350;2023-03-14T13:39:02;10.80;96.80
47779;DHT22;33538;48.432;11.350;2023-03-14T13:41:30;10.80;96.90
47779;DHT22;33538;48.432;11.350;2023-03-14T13:44:03;10.80;96.90
47779;DHT22;33538;48.432;11.350;2023-03-14T13:46:32;10.80;97.20
47779;DHT22;33538;48.432;11.350;2023-03-14T13:49:03;10.80;97.40
47779;DHT22;33538;48.432;11.350;2023-03-14T13:51:31;10.80;97.60
47779;DHT22;33538;48.432;11.350;2023-03-14T13:53:59;10.70;97.80
47779;DHT22;33538;48.432;11.350;2023-03-14T13:56:28;10.70;98.00
47779;DHT22;33538;48.432;11.350;2023-03-14T13:58:55;10.70;98.10
47779;DHT22;33538;48.432;11.350;2023-03-14T14:01:25;10.70;98.20
47779;DHT22;33538;48.432;11.350;2023-03-14T14:03:55;10.70;98.40
47779;DHT22;33538;48.432;11.350;2023-03-14T14:06:30;10.70;98.60
47779;DHT22;33538;48.432;11.350;2023-03-14T14:09:00;10.70;98.80
47779;DHT22;33538;48.432;11.350;2023-03-14T14:11:37;10.70;98.90
47779;DHT22;33538;48.432;11.350;2023-03-14T14:14:21;10.60;99.00
47779;DHT22;33538;48.432;11.350;2023-03-14T14:16:54;10.60;99.30
47779;DHT22;33538;48.432;11.350;2023-03-14T14:19:22;10.60;99.30
47779;DHT22;33538;48.432;11.350;2023-03-14T14:21:50;10.60;99.40
47779;DHT22;33538;48.432;11.350;2023-03-14T14:24:17;10.60;99.20
47779;DHT22;33538;48.432;11.350;2023-03-14T14:26:47;10.60;99.00
47779;DHT22;33538;48.432;11.350;2023-03-14T14:29:25;10.50;99.10
47779;DHT22;33538;48.432;11.350;2023-03-14T14:32:01;10.50;99.30
47779;DHT22;33538;48.432;11.350;2023-03-14T14:34:29;10.50;99.20
47779;DHT22;33538;48.432;11.350;2023-03-14T14:36:55;10.40;99.10
47779;DHT22;33538;48.432;11.350;2023-03-14T14:39:24;10.40;99.20
47779;DHT22;33538;48.432;11.350;2023-03-14T14:41:52;10.40;99.30
47779;DHT22;33538;48.432;11.350;2023-03-14T14:44:28;10.40;99.30
47779;DHT22;33538;48.432;11.350;2023-03-14T14:46:56;10.40;99.00
47779;DHT22;33538;48.432;11.350;2023-03-14T14:49:29;10.40;99.00
47779;DHT22;33538;48.432;11.350;2023-03-14T14:52:01;10.30;98.80
47779;DHT22;33538;48.432;11.350;2023-03-14T14:54:34;10.30;98.80
47779;DHT22;33538;48.432;11.350;2023-03-14T14:57:03;10.30;99.00
47779;DHT22;33538;48.432;11.350;2023-03-14T14:59:30;10.20;99.40
47779;DHT22;33538;48.432;11.350;2023-03-14T15:01:58;10.20;99.60
47779;DHT22;33538;48.432;11.350;2023-03-14T15:04:27;10.20;99.90
47779;DHT22;33538;48.432;11.350;2023-03-14T15:06:56;10.20;99.90
47779;DHT22;33538;48.432;11.350;2023-03-14T15:09:23;10.20;99.90
47779;DHT22;33538;48.432;11.350;2023-03-14T15:11:50;10.20;99.90
47779;DHT22;33538;48.432;11.350;2023-03-14T15:14:17;10.10;99.90
47779;DHT22;33538;48.432;11.350;2023-03-14T15:16:43;10.10;99.90
47779;DHT22;33538;48.432;11.350;2023-03-14T15:19:13;10.10;99.90
47779;DHT22;33538;48.432;11.350;2023-03-14T15:21:52;10.10;99.90
47779;DHT22;33538;48.432;11.350;2023-03-14T15:24:19;10.10;99.90
47779;DHT22;33538;48.432;11.350;2023-03-14T15:26:46;10.20;99.90
47779;DHT22;33538;48.432;11.350;2023-03-14T15:29:13;10.10;99.90
47779;DHT22;33538;48.432;11.350;2023-03-14T15:31:41;10.10;99.90
47779;DHT22;33538;48.432;11.350;2023-03-14T15:34:08;10.10;99.90